Time;durP1;ratioP1;P1;durP2;ratioP2;P2;SDS_P1;SDS_P2;PMS_P1;PMS_P2;Temp;Humidity;BMP_temperature;BMP_pressure;BME280_temperature;BME280_humidity;BME280_pressure;Samples;Min_cycle;Max_cycle;Signal;HPM_P1;HPM_P2
2022/04/20 00:02:00;;;;;;;4.10;2.58;;;8.80;74.30;;;;;;5059025;28;20472;-84
2022/04/20 00:04:28;;;;;;;6.75;2.65;;;8.70;74.50;;;;;;5076768;28;20095;-85
2022/04/20 00:06:54;;;;;;;5.53;2.60;;;8.70;74.90;;;;;;5058500;28;20031;-85
2022/04/20 00:09:19;;;;;;;4.40;2.85;;;8.60;75.10;;;;;;5058523;28;20032;-86
2022/04/20 00:11:46;;;;;;;7.25;3.28;;;8.60;75.30;;;;;;5076810;28;20016;-83
2022/04/20 00:14:12;;;;;;;13.15;2.95;;;8.60;75.50;;;;;;5077599;28;20013;-84
2022/04/20 00:16:39;;;;;;;4.78;3.25;;;8.50;75.70;;;;;;5076997;28;20373;-84
2022/04/20 00:19:04;;;;;;;5.97;2.97;;;8.50;76.10;;;;;;5059991;28;20044;-85
2022/04/20 00:21:30;;;;;;;5.43;2.50;;;8.50;76.10;;;;;;5060535;28;20021;-85
2022/04/20 00:23:55;;;;;;;5.95;3.00;;;8.40;76.20;;;;;;5067162;28;20017;-80
2022/04/20 00:26:21;;;;;;;4.85;2.80;;;8.40;76.30;;;;;;5072701;28;20044;-85
2022/04/20 00:28:47;;;;;;;4.43;2.85;;;8.40;76.30;;;;;;5076561;28;20468;-84
2022/04/20 00:31:12;;;;;;;5.75;2.90;;;8.40;76.10;;;;;;5077471;28;20017;-82
2022/04/20 00:33:38;;;;;;;5.47;2.72;;;8.30;76.60;;;;;;5059395;28;20468;-82
2022/04/20 00:36:04;;;;;;;5.15;2.47;;;8.30;76.90;;;;;;5077062;28;20032;-83
2022/04/20 00:38:30;;;;;;;5.22;2.95;;;8.20;77.20;;;;;;5078687;28;20042;-85
2022/04/20 00:40:56;;;;;;;6.13;3.20;;;8.20;77.50;;;;;;5078985;28;20025;-84
2022/04/20 00:43:22;;;;;;;4.63;3.10;;;8.10;77.90;;;;;;5058525;28;20369;-83
2022/04/20 00:45:49;;;;;;;7.30;3.08;;;8.10;78.40;;;;;;5044789;28;20122;-83
2022/04/20 00:48:16;;;;;;;6.15;3.05;;;8.10;78.50;;;;;;5039037;28;20529;-83
2022/04/20 00:50:44;;;;;;;4.60;3.13;;;8.10;78.20;;;;;;5038931;28;20104;-83
2022/04/20 00:53:10;;;;;;;3.22;2.40;;;8.10;78.10;;;;;;5039601;28;20047;-83
2022/04/20 00:55:36;;;;;;;4.50;2.78;;;8.10;77.90;;;;;;5057177;28;20473;-85
2022/04/20 00:58:02;;;;;;;5.95;3.30;;;8.20;77.80;;;;;;5056850;28;20021;-86
2022/04/20 01:00:29;;;;;;;5.18;2.90;;;8.20;78.10;;;;;;5039891;28;20112;-84
2022/04/20 01:02:55;;;;;;;5.30;3.10;;;8.20;79.00;;;;;;5058052;28;20500;-83
2022/04/20 01:05:21;;;;;;;5.97;2.80;;;8.20;78.70;;;;;;5040292;28;20021;-82
2022/04/20 01:07:47;;;;;;;5.03;3.00;;;8.10;79.20;;;;;;5040724;28;20020;-81
2022/04/20 01:10:13;;;;;;;6.60;2.22;;;8.00;80.00;;;;;;5059319;28;20039;-82
2022/04/20 01:12:43;;;;;;;4.30;2.60;;;7.90;80.30;;;;;;5038495;28;20025;-85
2022/04/20 01:15:09;;;;;;;6.75;2.85;;;7.90;80.60;;;;;;5037122;28;20029;-82
2022/04/20 01:17:34;;;;;;;7.35;3.10;;;7.80;81.30;;;;;;5036312;28;20075;-83
2022/04/20 01:20:00;;;;;;;5.13;3.20;;;7.80;82.50;;;;;;5037196;28;20094;-82
2022/04/20 01:22:26;;;;;;;8.75;3.53;;;7.70;83.30;;;;;;5039043;28;20025;-83
2022/04/20 01:24:51;;;;;;;6.95;3.15;;;7.60;84.70;;;;;;5055471;28;20029;-82
2022/04/20 01:27:17;;;;;;;4.97;2.95;;;7.60;86.50;;;;;;5036857;28;20041;-83
2022/04/20 01:29:43;;;;;;;5.18;2.55;;;7.50;88.00;;;;;;5036564;28;20120;-84
2022/04/20 01:32:09;;;;;;;3.95;2.60;;;7.50;89.20;;;;;;5036892;28;20109;-83
2022/04/20 01:34:34;;;;;;;6.30;3.05;;;7.40;90.40;;;;;;5036754;28;20053;-86
2022/04/20 01:37:00;;;;;;;3.63;2.50;;;7.40;91.00;;;;;;5055000;28;20033;-82
2022/04/20 01:39:25;;;;;;;4.55;3.00;;;7.40;91.60;;;;;;5036298;28;20025;-83
2022/04/20 01:41:51;;;;;;;4.78;3.10;;;7.30;92.40;;;;;;5054406;28;20033;-85
2022/04/20 01:44:17;;;;;;;6.90;3.10;;;7.30;93.60;;;;;;5036655;28;20032;-85
2022/04/20 01:46:42;;;;;;;6.70;2.88;;;7.20;94.60;;;;;;5056389;28;20509;-82
2022/04/20 01:49:08;;;;;;;7.75;3.05;;;7.30;95.10;;;;;;5055794;28;20085;-84
2022/04/20 01:51:52;;;;;;;5.05;2.90;;;7.30;95.60;;;;;;5074808;28;20048;-84
2022/04/20 01:54:20;;;;;;;5.20;2.67;;;7.30;96.50;;;;;;5056443;28;20021;-83
2022/04/20 01:56:47;;;;;;;4.57;2.88;;;7.20;97.70;;;;;;5075237;28;20189;-83
2022/04/20 01:59:14;;;;;;;8.52;3.03;;;7.10;98.60;;;;;;5056709;28;20046;-82
2022/04/20 02:04:24;;;;;;;7.00;3.15;;;7.10;99.90;;;;;;5075404;28;20032;-83
2022/04/20 02:06:50;;;;;;;5.15;2.80;;;7.00;99.90;;;;;;5057002;28;20448;-85
2022/04/20 02:09:15;;;;;;;5.68;2.95;;;7.00;99.90;;;;;;5075890;28;20029;-84
2022/04/20 02:11:41;;;;;;;5.25;2.70;;;7.00;99.90;;;;;;5078702;28;20029;-84
2022/04/20 02:14:06;;;;;;;6.88;3.22;;;6.90;99.90;;;;;;5061267;28;20032;-83
2022/04/20 02:16:32;;;;;;;5.40;3.05;;;7.00;99.90;;;;;;5061203;28;20123;-85
2022/04/20 02:18:58;;;;;;;8.20;3.53;;;7.00;99.90;;;;;;5080019;28;20376;-86
2022/04/20 02:21:23;;;;;;;8.77;2.75;;;7.00;99.90;;;;;;5079835;28;20032;-83
2022/04/20 02:23:49;;;;;;;6.07;3.00;;;7.00;99.90;;;;;;5080912;28;20036;-83
2022/04/20 02:26:14;;;;;;;4.35;3.10;;;7.10;99.90;;;;;;5068573;28;20032;-85
2022/04/20 02:28:40;;;;;;;5.97;2.72;;;7.10;99.90;;;;;;5091398;28;20044;-83
2022/04/20 02:31:05;;;;;;;6.72;3.42;;;7.10;99.90;;;;;;5079120;28;20024;-84
2022/04/20 02:33:31;;;;;;;6.05;3.40;;;7.00;99.90;;;;;;5059961;28;20108;-82
2022/04/20 02:35:57;;;;;;;4.95;2.95;;;7.00;99.90;;;;;;5058667;28;20021;-83
2022/04/20 02:38:23;;;;;;;5.18;2.58;;;7.00;99.90;;;;;;5059086;28;20460;-85
2022/04/20 02:40:51;;;;;;;7.32;3.58;;;7.00;99.90;;;;;;5059284;28;20031;-83
2022/04/20 02:43:17;;;;;;;4.32;2.70;;;7.00;99.90;;;;;;5077479;28;20021;-86
2022/04/20 02:45:42;;;;;;;3.72;2.88;;;7.00;99.90;;;;;;5065600;28;20044;-84
2022/04/20 02:48:09;;;;;;;6.93;2.78;;;6.90;99.90;;;;;;5057566;28;20025;-85
2022/04/20 02:50:35;;;;;;;4.18;2.60;;;6.90;99.90;;;;;;5040209;28;20028;-84
2022/04/20 02:53:00;;;;;;;6.38;3.15;;;6.80;99.90;;;;;;5040281;28;20029;-84
2022/04/20 02:55:26;;;;;;;5.50;3.58;;;6.80;99.90;;;;;;5040440;28;20036;-83
2022/04/20 02:57:52;;;;;;;6.20;3.45;;;6.80;99.90;;;;;;5040891;28;20028;-83
2022/04/20 03:00:17;;;;;;;5.18;3.00;;;6.70;99.90;;;;;;5041132;28;20500;-85
2022/04/20 03:02:43;;;;;;;4.40;2.85;;;6.70;99.90;;;;;;5041380;28;20028;-87
2022/04/20 03:05:09;;;;;;;3.90;2.83;;;6.60;99.90;;;;;;5059112;28;20035;-86
2022/04/20 03:07:35;;;;;;;5.53;3.35;;;6.60;99.90;;;;;;5059908;28;20028;-85
2022/04/20 03:10:02;;;;;;;5.28;2.83;;;6.50;99.90;;;;;;5043130;28;20055;-85
2022/04/20 03:12:28;;;;;;;6.60;3.30;;;6.60;99.90;;;;;;5038919;28;20025;-84
2022/04/20 03:14:54;;;;;;;6.75;3.30;;;6.60;99.90;;;;;;5056822;28;20217;-85
2022/04/20 03:17:23;;;;;;;4.05;3.00;;;6.70;99.90;;;;;;5056706;28;20016;-85
2022/04/20 03:19:49;;;;;;;6.05;3.22;;;6.70;99.90;;;;;;5038746;28;20048;-83
2022/04/20 03:22:14;;;;;;;4.03;2.90;;;6.70;99.90;;;;;;5056229;28;20036;-84
2022/04/20 03:24:40;;;;;;;6.07;3.20;;;6.60;99.90;;;;;;5056645;28;20545;-83
2022/04/20 03:27:06;;;;;;;5.03;3.20;;;6.60;99.90;;;;;;5056474;28;20060;-83
2022/04/20 03:29:32;;;;;;;3.72;2.90;;;6.50;99.90;;;;;;5039553;28;20032;-86
2022/04/20 03:31:58;;;;;;;6.30;3.28;;;6.50;99.90;;;;;;5056962;28;20032;-85
2022/04/20 03:34:24;;;;;;;6.18;3.90;;;6.40;99.90;;;;;;5058189;28;20033;-85
2022/04/20 03:36:50;;;;;;;7.32;3.67;;;6.20;99.90;;;;;;5057669;28;20103;-84
2022/04/20 03:39:15;;;;;;;9.25;3.65;;;6.20;99.90;;;;;;5058689;28;20055;-83
2022/04/20 03:41:41;;;;;;;7.30;3.10;;;6.10;99.90;;;;;;5059426;28;20028;-85
2022/04/20 03:44:08;;;;;;;4.68;3.22;;;6.00;99.90;;;;;;5041390;28;20235;-83
2022/04/20 03:46:34;;;;;;;6.93;3.33;;;5.90;99.90;;;;;;5060702;28;20345;-85
2022/04/20 03:49:00;;;;;;;5.55;3.70;;;5.90;99.90;;;;;;5061638;28;20119;-84
2022/04/20 03:51:25;;;;;;;4.20;3.33;;;5.90;99.90;;;;;;5087017;28;20031;-85
2022/04/20 03:53:51;;;;;;;6.20;3.53;;;5.90;99.90;;;;;;5088060;28;20282;-84
2022/04/20 03:56:16;;;;;;;4.72;3.40;;;5.90;99.90;;;;;;5058324;28;20020;-85
2022/04/20 03:58:42;;;;;;;4.28;3.08;;;5.90;99.90;;;;;;5057912;28;20469;-85
2022/04/20 04:01:08;;;;;;;7.10;3.40;;;6.00;99.90;;;;;;5058524;28;20039;-83
2022/04/20 04:03:37;;;;;;;8.32;4.13;;;6.00;99.90;;;;;;5076572;28;20583;-81
2022/04/20 04:06:03;;;;;;;9.27;4.13;;;5.90;99.90;;;;;;5076489;28;20037;-86
2022/04/20 04:08:29;;;;;;;16.13;4.45;;;5.80;99.90;;;;;;5059278;28;20559;-83
2022/04/20 04:10:56;;;;;;;12.23;4.50;;;5.80;99.90;;;;;;5058762;28;20024;-83
2022/04/20 04:13:22;;;;;;;10.15;3.47;;;5.70;99.90;;;;;;5076682;28;20017;-84
2022/04/20 04:15:49;;;;;;;10.30;4.10;;;5.70;99.90;;;;;;5059564;28;20430;-84
2022/04/20 04:18:14;;;;;;;7.10;3.72;;;5.70;99.90;;;;;;5077083;28;20021;-83
2022/04/20 04:20:40;;;;;;;7.10;3.45;;;5.70;99.90;;;;;;5059868;28;20028;-84
2022/04/20 04:23:06;;;;;;;6.22;3.58;;;5.80;99.90;;;;;;5060550;28;20296;-85
2022/04/20 04:25:32;;;;;;;5.65;3.40;;;5.90;99.90;;;;;;5060415;28;20037;-86
2022/04/20 04:27:57;;;;;;;8.00;4.03;;;5.90;99.90;;;;;;5060532;28;20020;-85
2022/04/20 04:30:23;;;;;;;4.43;3.22;;;5.90;99.90;;;;;;5074220;28;20032;-80
2022/04/20 04:32:51;;;;;;;5.63;3.42;;;5.90;99.90;;;;;;5064253;28;20082;-83
2022/04/20 04:35:17;;;;;;;9.88;4.10;;;5.90;99.90;;;;;;5078412;28;20027;-83
2022/04/20 04:37:43;;;;;;;5.80;3.92;;;5.80;99.90;;;;;;5059811;28;20025;-84
2022/04/20 04:40:09;;;;;;;5.72;3.15;;;5.80;99.90;;;;;;5078890;28;20031;-86
2022/04/20 04:42:34;;;;;;;8.35;3.50;;;5.80;99.90;;;;;;5060419;28;20062;-83
2022/04/20 04:48:36;;;;;;;7.60;4.18;;;5.80;99.90;;;;;;5071242;28;20052;-83
2022/04/20 04:50:30;;;;;;;7.32;3.83;;;5.80;99.90;;;;;;5054707;28;20048;-84
2022/04/20 04:52:56;;;;;;;8.55;4.00;;;5.70;99.90;;;;;;5048865;28;20025;-81
2022/04/20 04:55:21;;;;;;;8.70;3.88;;;5.60;99.90;;;;;;5050593;28;20041;-82
2022/04/20 04:57:47;;;;;;;9.75;4.25;;;5.50;99.90;;;;;;5050372;28;20033;-84
2022/04/20 05:00:13;;;;;;;7.50;4.53;;;5.50;99.90;;;;;;5046160;28;20143;-85
2022/04/20 05:02:39;;;;;;;8.45;3.95;;;5.50;99.90;;;;;;5038203;28;20340;-86
2022/04/20 05:05:05;;;;;;;7.10;3.88;;;5.50;99.90;;;;;;5037972;28;20179;-81
2022/04/20 05:07:30;;;;;;;7.70;4.18;;;5.50;99.90;;;;;;5055694;28;20369;-86
2022/04/20 05:09:56;;;;;;;5.47;3.47;;;5.60;99.90;;;;;;5037988;28;20028;-81
2022/04/20 05:12:21;;;;;;;8.80;4.18;;;5.60;99.90;;;;;;5056502;28;20510;-86
2022/04/20 05:14:47;;;;;;;5.85;4.00;;;5.70;99.90;;;;;;5038091;28;20021;-86
2022/04/20 05:17:13;;;;;;;7.55;3.95;;;5.80;99.90;;;;;;5038603;28;20022;-83
2022/04/20 05:19:39;;;;;;;9.93;4.07;;;5.90;99.90;;;;;;5056444;28;20447;-86
2022/04/20 05:22:07;;;;;;;7.22;4.60;;;6.10;99.90;;;;;;5038161;28;20041;-83
2022/04/20 05:24:35;;;;;;;8.38;4.07;;;6.30;99.90;;;;;;5038777;28;20025;-86
2022/04/20 05:27:02;;;;;;;8.20;4.05;;;6.40;99.90;;;;;;5056135;28;20492;-83
2022/04/20 05:29:27;;;;;;;7.45;4.60;;;6.60;99.90;;;;;;5038235;28;20101;-83
2022/04/20 05:31:55;;;;;;;5.93;3.60;;;6.70;99.90;;;;;;5039071;28;20060;-83
2022/04/20 05:34:23;;;;;;;7.45;3.97;;;6.90;99.90;;;;;;5057156;28;20021;-83
2022/04/20 05:42:18;;;;;;;5.53;3.58;;;7.30;99.90;;;;;;5057874;28;20031;-84
2022/04/20 05:44:44;;;;;;;5.88;4.10;;;7.40;99.90;;;;;;5045778;28;20044;-83
2022/04/20 05:47:10;;;;;;;6.05;3.47;;;7.60;99.90;;;;;;5064652;28;20024;-82
2022/04/20 05:49:35;;;;;;;9.18;4.00;;;7.80;99.90;;;;;;5062289;28;20028;-83
2022/04/20 05:52:01;;;;;;;7.78;3.60;;;7.90;99.90;;;;;;5062615;28;20113;-81
2022/04/20 05:54:26;;;;;;;7.70;3.50;;;8.20;99.90;;;;;;5080512;28;20033;-83
2022/04/20 05:56:53;;;;;;;7.95;3.25;;;8.30;99.90;;;;;;5079629;28;20503;-83
2022/04/20 05:59:18;;;;;;;6.60;3.50;;;8.40;99.90;;;;;;5079891;28;20020;-83
2022/04/20 06:01:44;;;;;;;7.85;4.00;;;8.60;99.90;;;;;;5079911;28;20372;-83
2022/04/20 06:04:10;;;;;;;5.72;3.92;;;8.70;99.90;;;;;;5062546;28;20093;-81
2022/04/20 06:06:35;;;;;;;6.25;3.70;;;8.90;99.90;;;;;;5062261;28;20028;-81
2022/04/20 06:09:01;;;;;;;6.57;3.65;;;9.10;99.90;;;;;;5062653;28;20039;-85
2022/04/20 06:11:28;;;;;;;5.78;3.47;;;9.40;99.90;;;;;;5080316;28;20086;-84
2022/04/20 06:13:53;;;;;;;5.35;3.35;;;9.60;99.90;;;;;;5062383;28;20124;-81
2022/04/20 06:16:19;;;;;;;6.50;3.60;;;9.90;99.90;;;;;;5081365;28;20388;-83
2022/04/20 06:18:45;;;;;;;6.55;3.63;;;10.00;98.00;;;;;;5064005;28;20024;-85
2022/04/20 06:21:10;;;;;;;7.60;3.67;;;10.40;96.90;;;;;;5062891;28;20503;-85
2022/04/20 06:23:36;;;;;;;3.95;3.00;;;10.60;94.90;;;;;;5082155;28;20056;-81
2022/04/20 06:26:02;;;;;;;5.22;3.13;;;10.90;93.10;;;;;;5081445;28;20032;-85
2022/04/20 06:28:27;;;;;;;4.18;3.30;;;11.20;92.50;;;;;;5068813;28;20071;-82
2022/04/20 06:30:53;;;;;;;8.15;3.50;;;11.50;91.30;;;;;;5071557;28;20028;-84
2022/04/20 06:33:21;;;;;;;6.05;3.95;;;11.60;88.90;;;;;;5063761;28;20044;-83
2022/04/20 06:35:47;;;;;;;5.03;3.45;;;11.70;85.90;;;;;;5080966;28;20088;-84
2022/04/20 06:38:13;;;;;;;7.65;3.75;;;11.80;85.20;;;;;;5080318;28;20025;-83
2022/04/20 06:40:38;;;;;;;10.05;4.90;;;11.80;84.40;;;;;;5063114;28;20047;-83
2022/04/20 06:43:05;;;;;;;12.15;3.90;;;11.90;82.50;;;;;;5082082;28;20031;-85
2022/04/20 06:45:30;;;;;;;9.20;3.95;;;11.70;82.40;;;;;;5071573;28;20013;-84
2022/04/20 06:47:59;;;;;;;12.73;4.32;;;11.70;83.60;;;;;;5062140;28;20112;-85
2022/04/20 06:50:25;;;;;;;8.27;3.95;;;11.80;83.20;;;;;;5060314;28;20111;-84
2022/04/20 06:58:31;;;;;;;7.43;3.90;;;12.80;80.50;;;;;;5059165;28;20497;-84
2022/04/20 07:00:57;;;;;;;6.05;3.38;;;12.90;78.20;;;;;;5059689;28;20017;-82
2022/04/20 07:03:23;;;;;;;10.38;4.25;;;13.30;76.80;;;;;;5057216;28;20086;-82
2022/04/20 07:05:49;;;;;;;7.43;3.72;;;13.40;76.40;;;;;;5039156;28;20025;-81
2022/04/20 07:08:14;;;;;;;8.18;4.72;;;13.60;75.30;;;;;;5040254;28;20025;-84
2022/04/20 07:10:40;;;;;;;5.07;3.28;;;13.50;71.80;;;;;;5040648;28;20081;-84
2022/04/20 07:13:06;;;;;;;9.65;4.00;;;13.50;72.10;;;;;;5039549;28;20163;-82
2022/04/20 07:15:31;;;;;;;8.60;3.67;;;13.80;71.60;;;;;;5057475;28;20027;-81
2022/04/20 07:17:57;;;;;;;7.20;4.18;;;14.10;70.00;;;;;;5057105;28;20021;-84
2022/04/20 07:20:22;;;;;;;4.80;3.42;;;14.10;69.50;;;;;;5039457;28;20091;-82
2022/04/20 07:22:49;;;;;;;7.18;3.63;;;14.30;69.50;;;;;;5057559;28;20543;-84
2022/04/20 07:25:16;;;;;;;4.97;3.47;;;14.40;69.30;;;;;;5039009;28;20484;-82
2022/04/20 07:27:42;;;;;;;7.50;3.72;;;14.80;68.00;;;;;;5057053;28;20059;-80
2022/04/20 07:30:08;;;;;;;5.55;3.67;;;15.00;65.90;;;;;;5057557;28;20021;-83
2022/04/20 07:32:34;;;;;;;6.03;3.58;;;15.00;65.60;;;;;;5039111;28;20021;-81
2022/04/20 07:35:00;;;;;;;7.10;3.22;;;14.90;65.60;;;;;;5057086;28;20366;-83
2022/04/20 07:37:25;;;;;;;8.02;3.67;;;15.10;65.50;;;;;;5057113;28;20032;-87
2022/04/20 07:39:51;;;;;;;6.90;3.90;;;15.40;64.40;;;;;;5038838;28;20052;-84
2022/04/20 07:42:16;;;;;;;5.65;3.20;;;15.40;64.30;;;;;;5038864;28;20408;-84
2022/04/20 07:44:42;;;;;;;5.60;3.05;;;15.80;62.90;;;;;;5043375;28;20016;-84
2022/04/20 07:47:07;;;;;;;5.82;3.38;;;15.90;61.60;;;;;;5059964;28;20059;-86
2022/04/20 07:52:19;;;;;;;6.40;3.38;;;16.20;59.50;;;;;;5078516;28;20122;-83
2022/04/20 07:54:45;;;;;;;6.22;3.50;;;16.60;61.10;;;;;;5078499;28;20024;-82
2022/04/20 07:57:14;;;;;;;3.88;3.10;;;16.70;58.90;;;;;;5078908;28;20032;-81
2022/04/20 07:59:40;;;;;;;7.07;3.17;;;16.80;59.00;;;;;;5079383;28;20510;-85
2022/04/20 08:02:06;;;;;;;5.72;2.95;;;16.90;58.60;;;;;;5080878;28;20028;-85
2022/04/20 08:04:31;;;;;;;7.50;3.13;;;17.10;58.60;;;;;;5063091;28;20029;-86
2022/04/20 08:06:57;;;;;;;3.95;2.88;;;17.10;57.90;;;;;;5082297;28;20028;-84
2022/04/20 08:09:24;;;;;;;4.80;2.65;;;17.10;57.60;;;;;;5080262;28;20486;-80
2022/04/20 08:11:50;;;;;;;6.10;2.85;;;16.90;57.80;;;;;;5060563;28;20024;-85
2022/04/20 08:14:16;;;;;;;6.28;3.33;;;16.80;57.20;;;;;;5078681;28;20051;-83
2022/04/20 08:16:43;;;;;;;6.68;3.28;;;16.70;57.10;;;;;;5079546;28;20021;-83
2022/04/20 08:19:10;;;;;;;4.32;2.65;;;16.90;58.10;;;;;;5060865;28;20472;-83
2022/04/20 08:21:36;;;;;;;5.70;2.88;;;17.10;57.20;;;;;;5079620;28;20321;-85
2022/04/20 08:24:03;;;;;;;5.90;3.10;;;17.40;55.70;;;;;;5081296;28;20056;-83
2022/04/20 08:26:29;;;;;;;4.85;2.55;;;17.30;55.10;;;;;;5093245;28;20028;-84
2022/04/20 08:28:54;;;;;;;8.63;3.03;;;17.60;54.80;;;;;;5061423;28;20074;-85
2022/04/20 08:31:21;;;;;;;8.93;2.88;;;17.90;54.90;;;;;;5078293;28;20065;-85
2022/04/20 08:33:47;;;;;;;4.13;2.75;;;17.90;53.70;;;;;;5060685;28;20415;-84
2022/04/20 08:36:12;;;;;;;4.70;2.75;;;18.30;53.30;;;;;;5060025;28;20032;-83
2022/04/20 08:38:39;;;;;;;7.20;2.63;;;18.50;51.20;;;;;;5079795;28;20020;-83
2022/04/20 08:41:05;;;;;;;4.00;2.53;;;18.40;51.60;;;;;;5078821;28;20040;-84
2022/04/20 08:43:32;;;;;;;4.97;2.40;;;18.20;51.60;;;;;;5060298;28;20024;-85
2022/04/20 08:46:01;;;;;;;4.07;2.28;;;18.40;52.60;;;;;;5044839;28;20052;-85
2022/04/20 08:48:27;;;;;;;3.78;2.35;;;18.30;51.00;;;;;;5038989;28;20024;-82
2022/04/20 08:50:53;;;;;;;5.07;2.70;;;18.10;50.70;;;;;;5058104;28;20510;-85
2022/04/20 08:53:20;;;;;;;3.33;2.20;;;18.30;51.20;;;;;;5058745;28;20372;-83
2022/04/20 08:55:46;;;;;;;6.18;2.90;;;18.50;50.20;;;;;;5057405;28;20051;-83
2022/04/20 08:58:12;;;;;;;4.57;2.15;;;18.60;49.90;;;;;;5057133;28;20036;-85
2022/04/20 09:00:38;;;;;;;3.50;2.38;;;18.80;50.80;;;;;;5038859;28;20029;-83
2022/04/20 09:03:04;;;;;;;6.10;2.45;;;18.70;49.30;;;;;;5056355;28;20025;-83
2022/04/20 09:05:34;;;;;;;3.88;2.50;;;18.70;48.80;;;;;;5038093;28;20032;-84
2022/04/20 09:08:09;;;;;;;4.20;2.50;;;18.30;49.30;;;;;;5055891;28;20035;-83
2022/04/20 09:10:36;;;;;;;3.85;2.30;;;18.30;49.20;;;;;;5054292;28;20109;-83
2022/04/20 09:13:11;;;;;;;3.97;1.52;;;18.30;51.10;;;;;;5055427;28;20029;-83
2022/04/20 09:15:38;;;;;;;3.30;2.10;;;18.40;47.90;;;;;;5055217;28;20029;-82
2022/04/20 09:18:05;;;;;;;3.95;2.20;;;18.40;46.80;;;;;;5055283;28;20036;-85
2022/04/20 09:20:32;;;;;;;5.40;1.83;;;18.40;48.20;;;;;;5060411;28;20025;-84
2022/04/20 09:23:09;;;;;;;2.53;1.55;;;18.40;48.30;;;;;;5062536;28;20416;-84
2022/04/20 09:25:37;;;;;;;4.38;2.28;;;18.40;47.90;;;;;;5062653;28;20550;-85
2022/04/20 09:28:07;;;;;;;3.58;1.60;;;18.60;48.00;;;;;;5063155;28;20108;-86
2022/04/20 09:30:38;;;;;;;3.67;2.15;;;18.90;45.10;;;;;;5063857;28;20032;-86
2022/04/20 09:33:06;;;;;;;3.67;2.28;;;19.10;46.80;;;;;;5064715;28;20025;-84
2022/04/20 09:35:43;;;;;;;4.18;2.10;;;18.90;47.50;;;;;;5062301;28;20422;-83
2022/04/20 09:38:09;;;;;;;3.15;1.70;;;19.10;48.70;;;;;;5061516;28;20415;-82
2022/04/20 09:40:37;;;;;;;5.90;2.30;;;19.30;46.30;;;;;;5044877;28;20068;-84
2022/04/20 09:43:06;;;;;;;3.38;2.15;;;19.00;48.80;;;;;;5061393;28;20029;-82
2022/04/20 09:45:33;;;;;;;3.50;1.80;;;19.00;46.40;;;;;;5054056;28;20028;-82
2022/04/20 09:51:14;;;;;;;3.22;2.30;;;18.90;47.20;;;;;;5082065;28;20035;-82
2022/04/20 09:53:41;;;;;;;5.28;2.30;;;19.00;47.30;;;;;;5063676;28;20023;-83
2022/04/20 09:56:21;;;;;;;3.30;2.10;;;18.70;47.80;;;;;;5064120;28;20055;-83
2022/04/20 09:59:00;;;;;;;3.78;1.95;;;18.60;48.80;;;;;;5083210;28;20105;-83
2022/04/20 10:01:32;;;;;;;4.22;2.45;;;18.70;48.70;;;;;;5064699;28;20059;-82
2022/04/20 10:03:59;;;;;;;5.28;2.58;;;18.90;48.30;;;;;;5083279;28;20384;-84
2022/04/20 10:06:26;;;;;;;3.25;2.25;;;19.00;48.90;;;;;;5083317;28;20103;-82
2022/04/20 10:08:52;;;;;;;3.85;2.33;;;19.00;48.80;;;;;;5083606;28;20020;-82
2022/04/20 10:11:21;;;;;;;3.30;2.38;;;19.10;49.10;;;;;;5082728;28;20032;-81
2022/04/20 10:16:05;;;;;;;2.80;2.28;;;18.80;49.70;;;;;;5066192;28;20016;-83
2022/04/20 10:16:37;;;;;;;2.55;2.03;;;18.70;50.60;;;;;;5084851;28;20020;-83
2022/04/20 10:19:03;;;;;;;4.50;1.92;;;19.00;49.30;;;;;;5085069;28;20100;-82
2022/04/20 10:21:34;;;;;;;3.38;1.95;;;19.20;49.60;;;;;;5089566;28;20036;-83
2022/04/20 10:24:05;;;;;;;2.10;1.60;;;19.60;48.70;;;;;;5072785;28;20031;-84
2022/04/20 10:26:34;;;;;;;6.95;2.25;;;19.60;47.00;;;;;;5085768;28;20028;-83
2022/04/20 10:29:08;;;;;;;4.10;1.83;;;19.60;48.40;;;;;;5085383;28;20053;-83
2022/04/20 10:31:48;;;;;;;2.58;1.58;;;19.00;48.20;;;;;;5067809;28;20032;-84
2022/04/20 10:34:17;;;;;;;4.15;2.10;;;19.10;48.50;;;;;;5089232;28;20495;-83
2022/04/20 10:36:59;;;;;;;3.40;2.17;;;19.30;49.10;;;;;;5081918;28;20020;-83
2022/04/20 10:39:27;;;;;;;3.17;2.10;;;19.70;47.80;;;;;;5064138;28;20033;-84
2022/04/20 10:42:11;;;;;;;4.43;2.08;;;19.90;48.00;;;;;;5064360;28;20027;-84
2022/04/20 10:44:55;;;;;;;2.88;2.35;;;19.80;48.70;;;;;;5060691;28;20017;-82
2022/04/20 10:47:24;;;;;;;4.20;2.47;;;19.60;47.00;;;;;;5062641;28;20039;-83
2022/04/20 10:50:09;;;;;;;3.78;2.00;;;19.80;47.90;;;;;;5062242;28;20040;-82
2022/04/20 10:52:41;;;;;;;5.70;2.67;;;19.20;47.10;;;;;;5044675;28;20025;-82
2022/04/20 10:55:06;;;;;;;4.38;2.28;;;19.20;48.30;;;;;;5045500;28;20037;-82
2022/04/20 10:57:34;;;;;;;6.53;2.28;;;19.20;47.90;;;;;;5047002;28;20040;-83
2022/04/20 11:00:19;;;;;;;3.35;1.80;;;19.50;47.80;;;;;;5063630;28;20537;-83
2022/04/20 11:03:01;;;;;;;3.63;2.05;;;19.60;49.40;;;;;;5046179;28;20021;-83
2022/04/20 11:05:27;;;;;;;5.45;2.10;;;19.70;47.20;;;;;;5063858;28;20052;-83
2022/04/20 11:08:14;;;;;;;2.40;1.88;;;19.60;47.60;;;;;;5046335;28;20476;-83
2022/04/20 11:10:42;;;;;;;3.67;2.30;;;19.80;47.70;;;;;;5063731;28;20025;-83
2022/04/20 11:19:16;;;;;;;3.03;2.08;;;19.60;48.20;;;;;;5064468;28;20091;-83
2022/04/20 11:22:08;;;;;;;3.53;2.20;;;19.50;47.50;;;;;;5065600;28;20443;-83
2022/04/20 11:24:34;;;;;;;3.70;2.33;;;19.80;47.60;;;;;;5060997;28;20029;-82
2022/04/20 11:27:00;;;;;;;3.17;1.83;;;20.00;46.80;;;;;;5047356;28;20033;-82
2022/04/20 11:29:26;;;;;;;2.65;1.77;;;19.80;47.60;;;;;;5046586;28;20092;-83
2022/04/20 11:32:00;;;;;;;3.60;2.17;;;20.00;46.50;;;;;;5046886;28;20020;-84
2022/04/20 11:34:27;;;;;;;3.05;2.00;;;20.30;46.70;;;;;;5065078;28;20018;-85
2022/04/20 11:36:55;;;;;;;3.75;2.20;;;20.10;45.90;;;;;;5047885;28;20021;-83
2022/04/20 11:39:24;;;;;;;3.97;1.98;;;20.00;46.10;;;;;;5048744;28;20431;-83
2022/04/20 11:41:55;;;;;;;4.10;1.85;;;19.40;47.60;;;;;;5072485;28;20048;-83
2022/04/20 11:44:25;;;;;;;3.30;2.20;;;18.70;47.90;;;;;;5074353;28;20036;-83
2022/04/20 11:46:53;;;;;;;3.88;2.25;;;18.60;49.90;;;;;;5075796;28;20016;-83
2022/04/20 11:49:20;;;;;;;3.75;2.13;;;18.80;49.60;;;;;;5074251;28;20024;-83
2022/04/20 11:51:53;;;;;;;4.88;1.95;;;19.00;49.30;;;;;;5080840;28;20071;-83
2022/04/20 11:54:23;;;;;;;4.63;2.13;;;19.40;47.50;;;;;;5080987;28;20024;-83
2022/04/20 11:56:49;;;;;;;2.35;1.90;;;19.10;48.00;;;;;;5081198;28;20028;-83
2022/04/20 11:59:18;;;;;;;4.35;2.15;;;19.00;48.60;;;;;;5064264;28;20021;-81
2022/04/20 12:01:44;;;;;;;3.47;1.67;;;19.10;48.80;;;;;;5064682;28;20028;-84
2022/04/20 12:04:18;;;;;;;5.30;2.25;;;19.20;49.60;;;;;;5081782;28;20020;-83
2022/04/20 12:06:58;;;;;;;2.42;2.22;;;19.50;48.00;;;;;;5082010;28;20024;-83
2022/04/20 12:09:29;;;;;;;5.78;2.25;;;19.60;48.00;;;;;;5063168;28;20139;-83
2022/04/20 12:12:00;;;;;;;3.90;2.25;;;19.40;48.20;;;;;;5083308;28;20017;-83
2022/04/20 12:14:34;;;;;;;3.85;2.20;;;19.50;48.10;;;;;;5084266;28;20052;-82
2022/04/20 12:17:21;;;;;;;2.85;2.35;;;19.50;48.60;;;;;;5067334;28;20054;-84
2022/04/20 12:19:48;;;;;;;4.72;2.33;;;19.40;48.60;;;;;;5073877;28;20032;-82
2022/04/20 12:22:17;;;;;;;5.70;2.13;;;19.30;49.30;;;;;;5070226;28;20047;-84
2022/04/20 12:24:43;;;;;;;3.65;2.20;;;19.70;49.20;;;;;;5062964;28;20028;-83
2022/04/20 12:27:22;;;;;;;5.90;2.50;;;19.90;47.80;;;;;;5079653;28;20043;-83
2022/04/20 12:29:56;;;;;;;3.92;2.70;;;19.80;48.10;;;;;;5061703;28;20055;-82
2022/04/20 12:32:26;;;;;;;2.97;2.40;;;20.00;49.40;;;;;;5079987;28;20440;-83
2022/04/20 12:34:54;;;;;;;2.97;2.30;;;19.70;50.90;;;;;;5080711;28;20490;-82
2022/04/20 12:37:28;;;;;;;4.38;2.60;;;19.80;49.30;;;;;;5079655;28;20099;-82
2022/04/20 12:39:55;;;;;;;3.95;2.42;;;20.30;50.70;;;;;;5080601;28;20066;-82
2022/04/20 12:42:20;;;;;;;3.97;2.80;;;20.50;48.20;;;;;;5079716;28;20104;-82
2022/04/20 12:44:48;;;;;;;4.78;3.05;;;20.30;48.40;;;;;;5077107;28;20040;-83
2022/04/20 12:47:17;;;;;;;6.55;3.03;;;20.60;49.40;;;;;;5044030;28;20052;-82
2022/04/20 12:49:48;;;;;;;4.45;2.80;;;20.50;47.80;;;;;;5043853;28;20031;-83
2022/04/20 12:52:25;;;;;;;5.10;2.90;;;20.50;48.70;;;;;;5063591;28;20487;-84
2022/04/20 12:55:13;;;;;;;4.50;2.78;;;20.30;48.40;;;;;;5063403;28;20435;-83
2022/04/20 13:03:39;;;;;;;4.45;2.67;;;19.80;49.30;;;;;;5049327;28;20546;-82
2022/04/20 13:06:10;;;;;;;3.25;2.65;;;19.70;49.50;;;;;;5037637;28;20036;-82
2022/04/20 13:08:45;;;;;;;5.95;3.22;;;19.50;50.80;;;;;;5037607;28;20063;-83
2022/04/20 13:11:13;;;;;;;6.43;3.25;;;19.30;51.50;;;;;;5037688;28;20020;-82
2022/04/20 13:13:39;;;;;;;3.72;3.03;;;19.30;51.50;;;;;;5037340;28;20091;-83
2022/04/20 13:16:08;;;;;;;8.40;2.88;;;19.40;50.70;;;;;;5037736;28;20024;-83
2022/04/20 13:18:35;;;;;;;3.75;2.53;;;19.40;51.50;;;;;;5055309;28;20024;-81
2022/04/20 13:21:01;;;;;;;5.00;2.90;;;19.40;51.20;;;;;;5037885;28;20025;-82
2022/04/20 13:23:26;;;;;;;7.18;2.80;;;19.50;51.60;;;;;;5037761;28;20388;-82
2022/04/20 13:28:36;;;;;;;4.47;3.75;;;19.70;51.60;;;;;;5054487;28;20102;-82
2022/04/20 13:31:02;;;;;;;4.22;2.58;;;19.80;51.50;;;;;;5036166;28;20025;-83